Bowerbank, Maine
Current Conditions -  °F | °C
As of 3:53 AM on Friday 24 Oct 2014 (Local Time) from KBGR Reporting Station
Light Rain Light Rain  
Wind Chill: 41°   Ceiling: 800
Heat Index: 47°   Visibility: 10mi
Dew Point: 45°   Wind: 14mph
Humidity: 93%   Direction: 360°N
Pressure: 29.69"   Gusts: NA
Location:  45.2129°N, 69.1615°W
Report Text: KBGR 240753Z 36012KT 10SM -RA OVC008 08/07 A2969 RMK AO2 CIG 006V011 SLP055 P0000 T00830072
Loading
Personal Weather Stations






























Interactive Weather Map
Tropical Storm Tracking
New forecast layout! Learn more

10-Day Weather Forecast

Advertisements
Track Severe Weather on mobile